Time;durP1;ratioP1;P1;durP2;ratioP2;P2;SDS_P1;SDS_P2;PMS_P1;PMS_P2;Temp;Humidity;BMP_temperature;BMP_pressure;BME280_temperature;BME280_humidity;BME280_pressure;Samples;Min_cycle;Max_cycle;Signal;HPM_P1;HPM_P2
2021/06/09 05:05:18;;;;;;;;;12.00;9.67;;;;;19.04;53.30;101932.63;6343499;22;45184;-89
2021/06/09 05:07:44;;;;;;;;;7.67;7.67;;;;;18.91;52.94;101912.22;6316203;22;45334;-90
2021/06/09 05:10:10;;;;;;;;;10.00;8.33;;;;;18.92;52.99;101913.97;6339704;22;45500;-90
2021/06/09 05:12:46;;;;;;;;;9.67;8.67;;;;;18.91;53.03;101917.53;6338970;22;48110;-89
2021/06/09 05:15:13;;;;;;;;;10.67;10.67;;;;;18.89;53.44;101911.31;6313207;22;45291;-89
2021/06/09 05:17:46;;;;;;;;;9.67;8.67;;;;;18.99;53.43;101931.75;6341387;22;45316;-90
2021/06/09 05:20:22;;;;;;;;;13.00;10.33;;;;;19.07;53.58;101934.44;6341443;22;45216;-89
2021/06/09 05:22:59;;;;;;;;;10.33;9.67;;;;;19.02;53.73;101922.84;6341442;22;46173;-89
2021/06/09 05:25:26;;;;;;;;;9.33;9.33;;;;;18.97;53.54;101912.22;6340640;22;45380;-86
2021/06/09 05:27:53;;;;;;;;;10.33;10.33;;;;;19.10;53.05;101935.31;6347667;22;45391;-84
2021/06/09 05:30:21;;;;;;;;;11.67;9.33;;;;;19.08;53.50;101934.41;6352431;22;44762;-85
2021/06/09 05:32:47;;;;;;;;;7.00;7.00;;;;;19.13;53.54;101933.53;6352908;22;46500;-86
2021/06/09 05:35:16;;;;;;;;;12.00;10.67;;;;;19.14;53.72;101932.66;6354349;22;45062;-85
2021/06/09 05:37:42;;;;;;;;;9.67;9.33;;;;;19.13;53.58;101923.75;6356822;22;45222;-90
2021/06/09 05:40:09;;;;;;;;;10.67;10.33;;;;;19.15;53.66;101926.47;6344132;22;45550;-84
2021/06/09 05:42:35;;;;;;;;;13.00;10.33;;;;;19.13;53.99;101917.53;6345589;22;46025;-86
2021/06/09 05:45:01;;;;;;;;;11.00;11.00;;;;;19.21;54.02;101931.78;6342789;22;45137;-86
2021/06/09 05:47:26;;;;;;;;;9.67;9.00;;;;;19.24;54.08;101925.56;6313447;22;45244;-87
2021/06/09 05:50:12;;;;;;;;;11.00;11.00;;;;;19.25;53.89;101930.91;6340336;22;45414;-89
2021/06/09 05:52:38;;;;;;;;;11.67;11.67;;;;;19.27;53.99;101934.47;6340104;22;45400;-87
2021/06/09 05:55:04;;;;;;;;;10.67;9.00;;;;;19.26;54.15;101916.69;6341680;22;45439;-80
2021/06/09 05:57:30;;;;;;;;;11.33;11.33;;;;;19.29;54.15;101938.00;6339444;22;45252;-87
2021/06/09 05:59:56;;;;;;;;;12.00;9.67;;;;;19.35;54.15;101933.59;6311906;22;45271;-92
2021/06/09 06:02:21;;;;;;;;;10.33;10.33;;;;;19.30;53.83;101928.25;6339852;22;45978;-88
2021/06/09 06:04:48;;;;;;;;;11.33;9.33;;;;;19.38;54.19;101934.47;6338506;22;45446;-83
2021/06/09 06:07:20;;;;;;;;;11.33;11.33;;;;;19.39;54.54;101927.34;6338928;22;45242;-90
2021/06/09 06:09:46;;;;;;;;;15.67;13.67;;;;;19.38;54.42;101931.78;6337014;22;45326;-89
2021/06/09 06:12:12;;;;;;;;;12.33;9.33;;;;;19.44;54.24;101939.78;6338862;22;45493;-90
2021/06/09 06:14:38;;;;;;;;;12.33;9.67;;;;;19.39;54.87;101928.25;6340300;22;45158;-90
2021/06/09 06:17:08;;;;;;;;;11.00;9.67;;;;;19.33;54.74;101914.94;6338088;22;45742;-91
2021/06/09 06:19:38;;;;;;;;;11.00;11.00;;;;;19.40;54.28;101927.34;6336768;22;45486;-92
2021/06/09 06:22:15;;;;;;;;;12.67;12.00;;;;;19.36;54.63;101908.69;6336954;22;46732;-92
2021/06/09 06:24:43;;;;;;;;;12.33;12.33;;;;;19.54;54.87;101937.13;6310461;22;45414;-91
2021/06/09 06:27:15;;;;;;;;;12.67;10.67;;;;;19.55;54.44;101931.78;6337715;22;45322;-90
2021/06/09 06:29:45;;;;;;;;;12.67;11.33;;;;;19.58;55.05;101935.34;6340126;22;45405;-91
2021/06/09 06:32:15;;;;;;;;;13.00;11.00;;;;;19.45;54.69;101908.69;6317320;22;47237;-90
2021/06/09 06:34:48;;;;;;;;;13.00;10.33;;;;;19.46;54.82;101902.44;6354103;22;45369;-90
2021/06/09 06:37:17;;;;;;;;;16.00;15.00;;;;;19.49;54.65;101906.91;6355227;22;45711;-91
2021/06/09 06:39:43;;;;;;;;;16.67;16.33;;;;;19.60;53.99;101923.78;6349335;22;44827;-91
2021/06/09 06:42:10;;;;;;;;;18.00;16.00;;;;;19.56;54.55;101914.88;6344311;22;48221;-89
2021/06/09 06:44:37;;;;;;;;;22.33;15.67;;;;;19.67;53.98;101935.34;6338710;22;45412;-91
2021/06/09 06:47:03;;;;;;;;;17.33;14.67;;;;;19.65;54.00;101921.13;6312370;22;45227;-91
2021/06/09 06:49:32;;;;;;;;;21.67;17.33;;;;;19.63;53.58;101912.22;6338693;22;45309;-90
2021/06/09 06:51:58;;;;;;;;;17.67;16.67;;;;;19.62;54.40;101905.09;6342868;22;46998;-90
2021/06/09 06:54:25;;;;;;;;;24.67;21.00;;;;;19.69;54.18;101911.31;6346126;22;45361;-90
2021/06/09 06:56:54;;;;;;;;;19.33;18.00;;;;;19.65;54.71;101899.78;6318883;22;45263;-91
2021/06/09 06:59:21;;;;;;;;;19.33;17.67;;;;;19.78;54.97;101921.97;6343078;22;45239;-90
2021/06/09 07:01:47;;;;;;;;;19.67;18.00;;;;;19.71;55.13;101899.78;6341406;22;48206;-90
2021/06/09 07:04:16;;;;;;;;;17.67;17.33;;;;;19.79;55.30;101919.31;6338407;22;45404;-91
2021/06/09 07:06:45;;;;;;;;;22.33;16.67;;;;;19.78;55.90;101917.53;6339043;22;45386;-91
2021/06/09 07:09:21;;;;;;;;;19.67;19.00;;;;;19.77;55.40;101907.75;6339460;22;45280;-90
2021/06/09 07:11:49;;;;;;;;;25.67;23.33;;;;;19.93;55.77;101939.72;6340780;22;47276;-91
2021/06/09 07:14:15;;;;;;;;;21.00;20.50;;;;;19.99;55.90;101937.03;6340895;22;45259;-90
2021/06/09 07:16:43;;;;;;;;;24.33;22.67;;;;;19.93;55.80;101921.03;6340749;22;45408;-91
2021/06/09 07:19:10;;;;;;;;;29.00;26.33;;;;;20.00;56.17;101922.81;6338963;22;45504;-90
2021/06/09 07:21:39;;;;;;;;;28.67;23.67;;;;;20.01;56.44;101921.91;6339860;22;46370;-90
2021/06/09 07:24:05;;;;;;;;;24.00;24.00;;;;;20.06;55.89;101923.66;6338067;22;45314;-91
2021/06/09 07:26:40;;;;;;;;;29.50;24.25;;;;;20.20;55.71;101935.22;6312271;22;45299;-91
2021/06/09 07:29:06;;;;;;;;;25.25;23.75;;;;;20.27;56.31;101940.53;6338971;22;45429;-89
2021/06/09 07:31:37;;;;;;;;;29.00;26.33;;;;;20.21;55.49;101917.41;6337716;22;47156;-90
2021/06/09 07:34:05;;;;;;;;;30.50;26.25;;;;;20.28;55.44;101929.88;6337439;22;45342;-91
2021/06/09 07:36:47;;;;;;;;;27.75;26.25;;;;;20.42;55.26;101945.81;6337978;22;45376;-91
2021/06/09 07:39:23;;;;;;;;;34.50;25.25;;;;;20.30;56.08;101909.38;6340686;22;45211;-91
2021/06/09 07:41:51;;;;;;;;;27.50;25.25;;;;;20.42;55.75;101916.44;6343450;22;47010;-90
2021/06/09 07:44:19;;;;;;;;;33.00;27.75;;;;;20.59;55.44;101942.16;6356045;22;44743;-91
2021/06/09 07:46:44;;;;;;;;;31.75;28.25;;;;;20.53;54.86;101918.16;6328406;22;45129;-91
2021/06/09 07:49:11;;;;;;;;;27.25;21.25;;;;;20.71;55.77;101936.75;6357306;22;45204;-90
2021/06/09 07:51:41;;;;;;;;;29.33;24.00;;;;;20.66;54.86;101917.22;6326599;22;47646;-90
2021/06/09 07:54:08;;;;;;;;;28.75;26.50;;;;;20.71;55.21;101911.81;6344670;22;45455;-90
2021/06/09 07:56:36;;;;;;;;;24.33;21.67;;;;;20.77;55.61;101905.56;6312753;22;45340;-90
2021/06/09 07:59:05;;;;;;;;;25.67;20.67;;;;;20.92;55.11;101924.16;6339106;22;45337;-90
2021/06/09 08:01:32;;;;;;;;;23.67;22.67;;;;;21.05;54.30;101932.09;6339784;22;47160;-91
2021/06/09 08:03:58;;;;;;;;;33.75;29.25;;;;;21.13;53.77;101940.94;6340463;22;45369;-91
2021/06/09 08:06:25;;;;;;;;;31.00;26.00;;;;;21.13;53.52;101924.91;6338133;22;45297;-91
2021/06/09 08:08:51;;;;;;;;;26.33;24.33;;;;;21.24;53.09;101919.47;6311874;22;45224;-91
2021/06/09 08:11:18;;;;;;;;;24.00;23.00;;;;;21.41;52.56;101926.47;6338871;22;47523;-91
2021/06/09 08:13:46;;;;;;;;;25.75;24.25;;;;;21.54;52.13;101921.88;6337566;22;45965;-91
2021/06/09 08:16:31;;;;;;;;;30.00;22.00;;;;;21.85;53.28;101932.31;6337875;22;45365;-91
2021/06/09 08:18:57;;;;;;;;;20.00;20.00;;;;;22.11;52.83;101938.25;6343291;22;45198;-90
2021/06/09 08:21:25;;;;;;;;;23.33;21.67;;;;;22.31;52.10;101926.44;6338072;22;47055;-91
2021/06/09 08:23:52;;;;;;;;;21.67;18.67;;;;;22.51;51.07;101918.09;6337591;22;45239;-91
2021/06/09 08:26:20;;;;;;;;;19.00;15.00;;;;;22.82;50.00;101937.38;6338535;22;45295;-91
2021/06/09 08:28:48;;;;;;;;;17.67;16.67;;;;;23.11;50.49;101928.88;6338068;22;45536;-89
2021/06/09 08:31:18;;;;;;;;;20.00;18.00;;;;;23.42;49.59;101931.91;6311504;22;48185;-91
2021/06/09 08:33:44;;;;;;;;;17.33;14.00;;;;;23.62;49.18;101926.25;6339093;22;45450;-90
2021/06/09 08:36:14;;;;;;;;;15.67;15.67;;;;;23.87;48.99;101928.44;6345251;22;45366;-90
2021/06/09 08:38:43;;;;;;;;;20.00;17.33;;;;;24.17;47.72;101926.06;6353576;22;44817;-90
2021/06/09 08:41:17;;;;;;;;;21.00;17.00;;;;;24.68;48.74;101944.72;6350924;22;45393;-91
2021/06/09 08:43:44;;;;;;;;;19.00;17.33;;;;;25.04;47.82;101930.44;6319642;22;45274;-89
2021/06/09 08:46:10;;;;;;;;;19.00;18.00;;;;;25.56;47.64;101937.19;6341684;22;45429;-90
2021/06/09 08:48:38;;;;;;;;;17.33;15.00;;;;;26.44;45.17;101930.25;6340085;22;45278;-90
2021/06/09 08:51:06;;;;;;;;;13.00;13.00;;;;;27.12;44.21;101907.44;6314970;22;47670;-89
2021/06/09 08:53:36;;;;;;;;;10.00;10.00;;;;;27.48;42.52;101916.13;6345180;22;45269;-90
2021/06/09 08:56:02;;;;;;;;;9.67;9.00;;;;;27.48;41.43;101919.72;6342125;22;45368;-90
2021/06/09 08:58:29;;;;;;;;;10.67;8.33;;;;;27.56;41.76;101932.06;6313106;22;45514;-90
2021/06/09 09:00:54;;;;;;;;;9.00;9.00;;;;;27.62;40.67;101934.56;6346670;22;45456;-90
2021/06/09 09:03:20;;;;;;;;;10.67;10.67;;;;;27.74;40.22;101933.22;6325173;22;45269;-89
2021/06/09 09:05:45;;;;;;;;;11.67;11.67;;;;;27.85;40.36;101924.75;6356653;22;44681;-89
2021/06/09 09:08:11;;;;;;;;;11.33;11.33;;;;;28.03;40.40;101923.16;6329471;22;45352;-90
2021/06/09 09:10:36;;;;;;;;;11.67;10.33;;;;;28.39;40.28;101939.84;6349698;22;45219;-90
2021/06/09 09:13:04;;;;;;;;;11.00;8.67;;;;;28.63;37.70;101937.13;6315917;22;45121;-90
2021/06/09 09:15:31;;;;;;;;;9.33;9.33;;;;;29.02;39.43;101938.28;6342723;22;45333;-91
2021/06/09 09:17:59;;;;;;;;;13.00;11.67;;;;;29.65;37.44;101941.94;6314782;22;45342;-90
2021/06/09 09:20:34;;;;;;;;;9.33;9.33;;;;;30.35;37.19;101948.75;6315103;22;48229;-90
2021/06/09 09:23:02;;;;;;;;;8.00;8.00;;;;;30.60;37.01;101939.44;6311484;22;45387;-91
2021/06/09 09:25:31;;;;;;;;;9.33;9.33;;;;;31.16;35.19;101940.31;6339025;22;45286;-90
2021/06/09 09:28:05;;;;;;;;;9.00;8.33;;;;;31.80;35.53;101956.06;6339518;22;45362;-90
2021/06/09 09:30:33;;;;;;;;;9.00;9.00;;;;;32.15;34.09;101966.00;6336090;22;46914;-91
2021/06/09 09:33:15;;;;;;;;;8.00;8.00;;;;;32.36;33.89;101952.16;6338943;22;45250;-91
2021/06/09 09:35:43;;;;;;;;;9.33;8.67;;;;;32.57;33.49;101949.19;6338470;22;45409;-91
2021/06/09 09:38:16;;;;;;;;;11.33;10.00;;;;;33.18;33.06;101962.03;6338974;22;45175;-90
2021/06/09 09:41:13;;;;;;;;;10.00;9.67;;;;;33.73;32.40;101966.94;6338386;22;46396;-90
2021/06/09 09:43:55;;;;;;;;;11.33;10.00;;;;;34.56;31.28;101960.88;6312197;22;45677;-91
2021/06/09 09:46:33;;;;;;;;;8.00;8.00;;;;;35.60;29.67;101961.16;6316925;22;45215;-91
2021/06/09 09:49:14;;;;;;;;;10.00;10.00;;;;;36.05;28.51;101962.59;6345110;22;45211;-90
2021/06/09 09:51:53;;;;;;;;;7.67;7.67;;;;;35.89;28.33;101977.41;6314129;22;46188;-92
2021/06/09 09:54:36;;;;;;;;;9.00;7.00;;;;;35.58;28.24;101949.47;6341716;22;45264;-90
2021/06/09 09:57:06;;;;;;;;;9.00;8.00;;;;;35.66;28.08;101951.66;6311720;22;45397;-91
2021/06/09 09:59:31;;;;;;;;;9.33;9.33;;;;;35.94;28.12;101962.50;6311334;22;45900;-91
2021/06/09 10:01:58;;;;;;;;;9.00;8.00;;;;;36.20;27.69;101946.03;6336923;22;46777;-90
2021/06/09 10:04:30;;;;;;;;;9.67;8.67;;;;;36.74;26.35;101943.91;6340201;22;45443;-91
2021/06/09 10:06:57;;;;;;;;;9.33;8.00;;;;;37.76;25.95;101949.78;6311774;22;45306;-90
2021/06/09 10:09:36;;;;;;;;;6.00;6.00;;;;;39.02;24.80;101954.22;6339924;22;45196;-91
2021/06/09 10:12:10;;;;;;;;;7.00;7.00;;;;;39.59;24.65;101953.88;6339455;22;47533;-90
2021/06/09 10:14:48;;;;;;;;;10.33;8.00;;;;;39.27;24.38;101954.84;6339501;22;45467;-91
2021/06/09 10:17:19;;;;;;;;;10.00;8.67;;;;;38.77;23.82;101954.44;6340066;22;45252;-90
2021/06/09 10:19:58;;;;;;;;;6.33;6.33;;;;;38.27;24.55;101965.88;6339920;22;45271;-90
2021/06/09 10:22:28;;;;;;;;;7.00;6.67;;;;;37.89;24.74;101960.66;6339318;22;45305;-91
2021/06/09 10:25:04;;;;;;;;;7.00;7.00;;;;;37.84;24.81;101944.56;6339481;22;45407;-91
2021/06/09 10:27:34;;;;;;;;;8.00;7.00;;;;;38.45;24.82;101950.66;6311398;22;45382;-90
2021/06/09 10:30:00;;;;;;;;;12.00;9.00;;;;;39.49;21.38;101962.06;6342769;22;45344;-91
2021/06/09 10:32:27;;;;;;;;;7.67;7.67;;;;;40.74;22.00;101947.28;6337905;22;46817;-91
2021/06/09 10:34:52;;;;;;;;;7.00;5.67;;;;;42.16;20.43;101955.94;6339288;22;45281;-90
2021/06/09 10:37:18;;;;;;;;;7.00;7.00;;;;;43.07;20.74;101952.38;6311616;22;45779;-91
2021/06/09 10:39:44;;;;;;;;;8.33;6.67;;;;;43.28;20.29;101950.09;6341235;22;45746;-91
2021/06/09 10:42:12;;;;;;;;;8.33;7.00;;;;;42.83;20.21;101949.25;6348330;22;46310;-91
2021/06/09 10:44:41;;;;;;;;;7.33;7.33;;;;;41.97;21.07;101939.31;6316673;22;45322;-90
2021/06/09 10:47:18;;;;;;;;;10.00;8.00;;;;;41.22;21.48;101954.81;6343041;22;45199;-92
2021/06/09 10:49:44;;;;;;;;;6.00;6.00;;;;;40.48;21.52;101947.81;6338321;22;45388;-91
2021/06/09 10:52:12;;;;;;;;;10.33;6.00;;;;;40.03;20.69;101939.00;6340775;22;47496;-92
2021/06/09 10:54:38;;;;;;;;;5.33;5.33;;;;;39.94;20.66;101950.84;6339928;22;45920;-91
2021/06/09 10:57:06;;;;;;;;;9.33;6.33;;;;;40.22;20.55;101928.22;6315490;22;45375;-91
2021/06/09 10:59:42;;;;;;;;;9.00;9.00;;;;;41.28;19.87;101951.47;6312685;22;45330;-91
2021/06/09 11:02:16;;;;;;;;;8.33;7.67;;;;;42.77;18.85;101942.41;6339915;22;46467;-92
2021/06/09 11:04:46;;;;;;;;;9.33;7.33;;;;;42.27;19.00;101944.66;6311314;22;45682;-91
2021/06/09 11:07:31;;;;;;;;;5.67;5.67;;;;;40.66;19.87;101949.03;6311586;22;45439;-91
2021/06/09 11:09:59;;;;;;;;;6.67;6.67;;;;;39.43;20.48;101932.34;6338235;22;45276;-92
2021/06/09 11:12:33;;;;;;;;;9.00;7.33;;;;;38.55;20.79;101933.38;6339701;22;46168;-91
2021/06/09 11:15:03;;;;;;;;;5.00;5.00;;;;;37.70;21.12;101934.72;6337134;22;45149;-91
2021/06/09 11:17:43;;;;;;;;;8.33;5.00;;;;;37.01;22.81;101928.22;6337972;22;45417;-91
2021/06/09 11:20:25;;;;;;;;;6.00;6.00;;;;;36.46;22.45;101919.50;6337823;22;45412;-91
2021/06/09 11:22:56;;;;;;;;;5.67;5.67;;;;;36.02;23.05;101921.78;6337236;22;47271;-90
2021/06/09 11:25:35;;;;;;;;;4.33;4.33;;;;;35.59;23.13;101910.22;6313569;22;45426;-92
2021/06/09 11:28:05;;;;;;;;;5.33;4.67;;;;;35.32;23.40;101919.41;6321051;22;45313;-92
2021/06/09 11:30:30;;;;;;;;;6.00;5.00;;;;;35.08;23.83;101929.16;6348516;22;45301;-92
2021/06/09 11:32:59;;;;;;;;;7.67;6.33;;;;;34.75;24.12;101908.63;6349575;22;47844;-92
2021/06/09 11:35:43;;;;;;;;;7.00;5.00;;;;;34.65;24.56;101928.34;6349123;22;45352;-93
2021/06/09 11:38:37;;;;;;;;;6.67;4.67;;;;;34.37;25.25;101912.97;6344472;22;45288;-91
2021/06/09 11:41:10;;;;;;;;;6.00;5.33;;;;;34.28;25.02;101914.44;6349632;22;44727;-92
2021/06/09 11:43:49;;;;;;;;;4.00;4.00;;;;;34.15;25.07;101911.59;6345116;22;45469;-92
2021/06/09 11:46:17;;;;;;;;;5.00;5.00;;;;;33.98;24.50;101919.03;6342507;22;45356;-92
2021/06/09 11:48:54;;;;;;;;;5.00;5.00;;;;;33.76;24.69;101909.50;6343750;22;45400;-91
2021/06/09 11:51:25;;;;;;;;;5.67;4.00;;;;;33.63;25.53;101915.69;6342551;22;45314;-93
2021/06/09 11:53:54;;;;;;;;;4.00;3.00;;;;;33.52;25.21;101901.88;6343030;22;45759;-92
2021/06/09 11:56:24;;;;;;;;;8.00;5.00;;;;;33.33;26.08;101881.22;6341151;22;45302;-93
2021/06/09 11:58:59;;;;;;;;;5.33;5.33;;;;;33.37;26.12;101901.88;6340938;22;45357;-93
2021/06/09 12:01:35;;;;;;;;;6.67;6.67;;;;;33.35;26.33;101901.09;6339394;22;45437;-93
2021/06/09 12:04:26;;;;;;;;;4.00;4.00;;;;;33.27;26.19;101897.97;6322872;22;47099;-94
2021/06/09 12:06:52;;;;;;;;;5.67;5.67;;;;;33.30;25.53;101905.94;6279636;22;45185;-92
2021/06/09 12:09:20;;;;;;;;;6.67;5.00;;;;;33.17;26.54;101892.19;6303500;22;45373;-92
2021/06/09 12:11:48;;;;;;;;;6.33;4.33;;;;;33.16;25.79;101895.84;6302451;22;45431;-93
2021/06/09 12:14:22;;;;;;;;;5.33;5.33;;;;;33.21;26.31;101909.22;6278172;22;47348;-91
2021/06/09 12:16:51;;;;;;;;;6.00;6.00;;;;;33.08;25.81;101904.50;6302841;22;45420;-92
2021/06/09 12:19:25;;;;;;;;;6.00;5.33;;;;;32.91;26.83;101887.31;6303940;22;45191;-91
2021/06/09 12:21:55;;;;;;;;;7.00;6.00;;;;;32.90;26.72;101903.75;6278972;22;45231;-93
2021/06/09 12:24:21;;;;;;;;;6.00;6.00;;;;;32.77;26.67;101901.75;6277871;22;47030;-90
2021/06/09 12:26:54;;;;;;;;;6.67;5.67;;;;;32.60;26.91;101889.13;6281571;22;45366;-90
2021/06/09 12:29:26;;;;;;;;;5.00;5.00;;;;;32.51;27.29;101895.13;6284157;22;45329;-92
2021/06/09 12:31:54;;;;;;;;;6.33;6.00;;;;;32.39;26.34;101883.97;6289092;22;45375;-90
2021/06/09 12:34:31;;;;;;;;;7.00;6.33;;;;;32.38;25.74;101884.06;6291398;22;46206;-91
2021/06/09 12:37:05;;;;;;;;;5.00;5.00;;;;;32.29;26.91;101883.63;6313428;22;45392;-90
2021/06/09 12:39:31;;;;;;;;;7.33;5.00;;;;;32.24;26.71;101875.72;6286594;22;45376;-90
2021/06/09 12:41:57;;;;;;;;;7.00;6.67;;;;;32.18;27.51;101869.75;6287410;22;45365;-90
2021/06/09 12:44:27;;;;;;;;;8.33;6.33;;;;;32.19;26.81;101875.13;6313018;22;46974;-90
2021/06/09 12:47:01;;;;;;;;;7.67;7.67;;;;;32.16;27.61;101872.56;6291136;22;45654;-90
2021/06/09 12:49:33;;;;;;;;;6.67;6.67;;;;;32.16;27.30;101886.16;6313202;22;45203;-91
2021/06/09 12:51:59;;;;;;;;;4.00;4.00;;;;;31.99;27.84;101854.47;6290427;22;44815;-90
2021/06/09 12:54:25;;;;;;;;;4.33;4.33;;;;;32.06;27.42;101863.19;6290091;22;45345;-90
2021/06/09 12:56:50;;;;;;;;;5.00;5.00;;;;;32.03;27.38;101868.75;6288582;22;45259;-90
2021/06/09 12:59:33;;;;;;;;;5.00;5.00;;;;;31.97;27.01;101872.69;6288828;22;45223;-91
2021/06/09 13:01:59;;;;;;;;;5.67;5.67;;;;;31.82;27.13;101855.41;6281334;22;45273;-90
2021/06/09 13:04:40;;;;;;;;;5.33;4.67;;;;;31.81;27.07;101848.22;6306472;22;46197;-93
2021/06/09 13:07:06;;;;;;;;;5.00;5.00;;;;;31.79;27.05;101859.19;6310163;22;45440;-89
2021/06/09 13:09:32;;;;;;;;;4.33;4.33;;;;;31.69;26.74;101847.94;6310927;22;45280;-90
2021/06/09 13:11:58;;;;;;;;;5.33;4.33;;;;;31.65;26.64;101854.50;6336010;22;45351;-90
2021/06/09 13:14:35;;;;;;;;;9.00;5.00;;;;;31.66;27.20;101861.69;6334610;22;47570;-91
2021/06/09 13:17:03;;;;;;;;;4.67;4.67;;;;;31.58;26.59;101861.25;6336416;22;45587;-90
2021/06/09 13:19:29;;;;;;;;;4.00;4.00;;;;;31.48;26.55;101861.75;6310661;22;45322;-90
2021/06/09 13:21:55;;;;;;;;;5.00;5.00;;;;;31.38;26.54;101860.44;6310178;22;45339;-90
2021/06/09 13:24:43;;;;;;;;;5.00;5.00;;;;;31.22;27.11;101847.72;6309468;22;46030;-89
2021/06/09 13:27:22;;;;;;;;;5.33;5.33;;;;;31.17;27.94;101858.81;6312425;22;45336;-91
2021/06/09 13:29:53;;;;;;;;;6.00;6.00;;;;;30.92;27.89;101824.81;6339220;22;45458;-93
2021/06/09 13:32:31;;;;;;;;;6.67;6.67;;;;;30.90;28.55;101839.41;6314757;22;45323;-92
2021/06/09 13:35:14;;;;;;;;;7.00;5.67;;;;;30.73;28.65;101830.28;6339700;22;46989;-91
2021/06/09 13:37:56;;;;;;;;;;;;;;;;;;;;;
2021/06/09 13:40:32;;;;;;;;;7.33;5.67;;;;;30.52;28.31;101843.97;6323051;22;69022;-93
2021/06/09 13:43:09;;;;;;;;;6.67;5.67;;;;;30.38;28.03;101837.41;6322653;22;45334;-91
2021/06/09 13:45:52;;;;;;;;;9.33;7.00;;;;;30.15;28.41;101819.53;6312609;22;47296;-92
2021/06/09 13:48:20;;;;;;;;;7.00;7.00;;;;;30.02;28.38;101816.53;6310786;22;45287;-90
2021/06/09 13:51:00;;;;;;;;;6.00;6.00;;;;;30.06;29.05;101837.09;6308321;22;45325;-89
2021/06/09 13:53:27;;;;;;;;;8.00;7.67;;;;;29.93;28.79;101832.28;6306630;22;45446;-90
2021/06/09 13:55:53;;;;;;;;;8.33;7.33;;;;;29.85;29.46;101820.03;6307314;22;46607;-90
2021/06/09 13:58:22;;;;;;;;;8.00;8.00;;;;;29.76;29.43;101819.53;6310182;22;45243;-90
2021/06/09 14:00:49;;;;;;;;;7.33;6.00;;;;;29.67;29.85;101807.31;6333001;22;45339;-91
2021/06/09 14:03:21;;;;;;;;;14.00;9.00;;;;;29.69;30.76;101820.78;6308164;22;45434;-91
2021/06/09 14:05:49;;;;;;;;;10.67;7.67;;;;;29.70;30.43;101820.72;6312518;22;47556;-91
2021/06/09 14:08:17;;;;;;;;;7.33;7.33;;;;;29.54;31.01;101806.97;6341905;22;45204;-92
2021/06/09 14:10:57;;;;;;;;;7.67;7.00;;;;;29.63;31.41;101821.03;6312200;22;45394;-93
2021/06/09 14:13:25;;;;;;;;;9.00;8.00;;;;;29.41;31.52;101784.09;6341303;22;45097;-91
2021/06/09 14:15:56;;;;;;;;;9.00;9.00;;;;;29.47;32.28;101800.97;6339562;22;46871;-91
2021/06/09 14:18:38;;;;;;;;;8.67;7.33;;;;;29.54;32.06;101815.09;6338002;22;45852;-91
2021/06/09 14:21:07;;;;;;;;;7.67;7.67;;;;;29.46;30.53;101812.75;6338151;22;45243;-90
2021/06/09 14:23:38;;;;;;;;;8.67;7.00;;;;;29.43;32.20;101812.88;6339603;22;45155;-93
2021/06/09 14:26:06;;;;;;;;;7.00;6.67;;;;;29.32;31.77;101797.13;6338917;22;46352;-91
2021/06/09 14:28:34;;;;;;;;;6.00;6.00;;;;;29.21;32.90;101789.47;6339564;22;45271;-88
2021/06/09 14:31:07;;;;;;;;;6.33;6.00;;;;;29.27;32.53;101798.28;6338581;22;45340;-89
2021/06/09 14:36:29;;;;;;;;;7.00;7.00;;;;;29.16;33.90;101799.66;6338923;22;45282;-89
2021/06/09 14:38:55;;;;;;;;;9.00;6.67;;;;;29.06;33.25;101793.78;6338323;22;45357;-92
2021/06/09 14:41:30;;;;;;;;;6.33;6.33;;;;;28.99;33.44;101793.16;6340128;22;45364;-88
2021/06/09 14:44:00;;;;;;;;;7.00;7.00;;;;;28.93;32.52;101795.22;6342527;22;45289;-88
2021/06/09 14:46:36;;;;;;;;;7.33;7.33;;;;;28.78;33.55;101782.31;6345716;22;45913;-85
2021/06/09 14:49:01;;;;;;;;;9.00;9.00;;;;;28.69;34.23;101776.41;6355943;22;45226;-84
2021/06/09 14:51:29;;;;;;;;;6.67;6.00;;;;;28.69;33.68;101788.13;6356055;22;45164;-83
2021/06/09 14:53:54;;;;;;;;;8.33;8.00;;;;;28.60;33.53;101783.97;6358869;22;45254;-88
2021/06/09 14:56:22;;;;;;;;;10.00;8.00;;;;;28.52;32.64;101787.00;6356113;22;45258;-85
2021/06/09 14:58:49;;;;;;;;;9.00;9.00;;;;;28.51;33.72;101795.19;6353537;22;45257;-87
2021/06/09 15:01:16;;;;;;;;;5.00;5.00;;;;;28.43;32.24;101793.69;6354867;22;45314;-86
2021/06/09 15:03:42;;;;;;;;;8.00;7.67;;;;;28.38;34.05;101786.69;6354780;22;45150;-91
2021/06/09 15:06:08;;;;;;;;;11.33;8.00;;;;;28.31;34.22;101786.94;6355972;22;47964;-91
2021/06/09 15:08:35;;;;;;;;;10.67;9.00;;;;;28.25;34.59;101779.09;6354971;22;45208;-89
2021/06/09 15:11:01;;;;;;;;;9.33;9.33;;;;;28.11;34.33;101779.66;6351431;22;45256;-90
2021/06/09 15:13:31;;;;;;;;;8.33;8.00;;;;;27.99;34.68;101759.41;6351390;22;45157;-94
2021/06/09 15:15:56;;;;;;;;;8.33;8.33;;;;;27.98;34.91;101765.75;6350587;22;46216;-84
2021/06/09 15:18:22;;;;;;;;;7.00;7.00;;;;;28.01;34.78;101779.13;6350851;22;45156;-96
2021/06/09 15:20:47;;;;;;;;;8.00;8.00;;;;;27.85;35.27;101751.88;6352784;22;44682;-90
2021/06/09 15:23:13;;;;;;;;;7.00;7.00;;;;;27.96;35.63;101775.75;6347182;22;45323;-92
2021/06/09 15:25:39;;;;;;;;;7.67;7.33;;;;;27.91;35.26;101775.94;6343469;22;45445;-91
2021/06/09 15:28:08;;;;;;;;;7.00;7.00;;;;;27.87;35.53;101771.59;6317141;22;45331;-91
2021/06/09 15:30:38;;;;;;;;;9.00;9.00;;;;;27.82;35.92;101766.38;6343004;22;45223;-95
2021/06/09 15:33:07;;;;;;;;;8.33;7.33;;;;;27.68;35.89;101750.69;6350401;22;45254;-91
2021/06/09 15:35:33;;;;;;;;;7.00;7.00;;;;;27.70;36.10;101766.81;6342839;22;45250;-88
2021/06/09 15:37:59;;;;;;;;;10.00;8.67;;;;;27.61;36.17;101754.53;6342067;22;45158;-91
2021/06/09 15:40:24;;;;;;;;;8.67;8.67;;;;;27.56;36.18;101760.13;6345640;22;45101;-92
2021/06/09 15:42:49;;;;;;;;;8.00;8.00;;;;;27.52;36.28;101755.78;6341361;22;45245;-91
2021/06/09 15:45:16;;;;;;;;;9.67;8.33;;;;;27.50;36.72;101757.66;6340576;22;45501;-89
2021/06/09 15:47:41;;;;;;;;;8.00;8.00;;;;;27.49;36.57;101764.00;6342258;22;45181;-92
2021/06/09 15:50:08;;;;;;;;;9.00;9.00;;;;;27.47;36.69;101764.06;6315538;22;45415;-92
2021/06/09 15:52:42;;;;;;;;;8.33;8.33;;;;;27.36;36.96;101745.56;6344312;22;45515;-90
2021/06/09 15:55:09;;;;;;;;;9.00;9.00;;;;;27.37;37.06;101758.13;6346783;22;46170;-89
2021/06/09 15:57:35;;;;;;;;;9.67;9.67;;;;;27.34;37.65;101757.38;6351277;22;45323;-92
2021/06/09 16:00:01;;;;;;;;;7.33;7.33;;;;;27.22;37.30;101745.22;6351657;22;45278;-86
2021/06/09 16:02:27;;;;;;;;;5.33;5.33;;;;;27.16;37.83;101744.50;6350398;22;45283;-93
2021/06/09 16:04:54;;;;;;;;;11.00;9.33;;;;;27.19;37.19;101753.41;6326398;22;46070;-90
2021/06/09 16:07:20;;;;;;;;;11.00;8.67;;;;;27.11;37.37;101748.31;6350859;22;45116;-88
2021/06/09 16:09:45;;;;;;;;;10.67;9.67;;;;;27.06;37.26;101748.44;6340690;22;45347;-93
2021/06/09 16:12:11;;;;;;;;;7.33;7.33;;;;;26.99;37.69;101752.31;6341392;22;45251;-94
2021/06/09 16:14:37;;;;;;;;;8.33;8.33;;;;;26.97;37.63;101749.66;6339844;22;45272;-89
2021/06/09 16:17:02;;;;;;;;;9.67;9.00;;;;;26.92;37.98;101747.13;6339693;22;45223;-93
2021/06/09 16:19:29;;;;;;;;;8.00;8.00;;;;;26.92;37.99;101749.84;6341327;22;45194;-94
2021/06/09 16:21:57;;;;;;;;;10.00;8.00;;;;;26.88;38.39;101755.38;6341988;22;45333;-92
2021/06/09 16:24:23;;;;;;;;;11.67;10.00;;;;;26.78;38.02;101736.81;6343885;22;45418;-91
2021/06/09 16:26:48;;;;;;;;;8.67;8.67;;;;;26.76;37.58;101740.53;6341000;22;45318;-92
2021/06/09 16:29:14;;;;;;;;;9.33;8.00;;;;;26.83;37.97;101751.03;6341758;22;45227;-91
2021/06/09 16:31:39;;;;;;;;;7.33;7.33;;;;;26.80;38.34;101748.44;6340964;22;45451;-90
2021/06/09 16:34:05;;;;;;;;;9.50;8.50;;;;;26.74;38.52;101745.97;6341133;22;45461;-90
2021/06/09 16:36:30;;;;;;;;;8.00;7.67;;;;;26.74;38.92;101745.06;6341391;22;45274;-89
2021/06/09 16:38:55;;;;;;;;;10.00;10.00;;;;;26.70;38.73;101753.28;6341006;22;45276;-91
2021/06/09 16:41:21;;;;;;;;;9.67;8.67;;;;;26.70;38.82;101755.97;6348472;22;45160;-95